createdAt,value
2023-05-17T00:00:33.681Z,98765.25
2023-05-17T00:03:06.219Z,98770.91
2023-05-17T00:05:38.635Z,98760.13
2023-05-17T00:08:11.277Z,98752.59
2023-05-17T00:10:44.118Z,98765.09
2023-05-17T00:13:16.054Z,98767.69
2023-05-17T00:15:48.886Z,98773.41
2023-05-17T00:18:20.915Z,98764.50
2023-05-17T00:20:53.754Z,98775.28
2023-05-17T00:23:26.114Z,98770.53
2023-05-17T00:25:58.031Z,98773.13
2023-05-17T00:28:31.075Z,98779.03
2023-05-17T00:31:03.562Z,98775.47
2023-05-17T00:33:36.485Z,98786.81
2023-05-17T00:36:09.017Z,98784.53
2023-05-17T00:38:41.510Z,98789.88
2023-05-17T00:41:13.880Z,98781.53
2023-05-17T00:43:46.767Z,98776.69
2023-05-17T00:46:18.696Z,98780.06
2023-05-17T00:48:51.625Z,98790.34
2023-05-17T00:51:24.904Z,98791.94
2023-05-17T00:53:57.389Z,98790.03
2023-05-17T00:56:30.455Z,98802.91
2023-05-17T00:59:05.557Z,98797.13
2023-05-17T01:01:42.023Z,98792.47
2023-05-17T01:04:15.658Z,98794.03
2023-05-17T01:06:48.328Z,98791.22
2023-05-17T01:09:20.341Z,98784.72
2023-05-17T01:12:59.741Z,98787.75
2023-05-17T01:15:36.087Z,98792.72
2023-05-17T01:18:21.875Z,98787.97
2023-05-17T01:21:00.026Z,98797.47
2023-05-17T01:23:47.439Z,98795.81
2023-05-17T01:26:39.870Z,98803.78
2023-05-17T01:29:14.647Z,98808.22
2023-05-17T01:31:48.897Z,98815.91
2023-05-17T01:34:30.144Z,98810.34
2023-05-17T01:37:02.078Z,98807.19
2023-05-17T01:39:36.685Z,98825.41
2023-05-17T01:42:29.178Z,98821.78
2023-05-17T01:45:32.579Z,98825.94
2023-05-17T01:48:52.733Z,98821.31
2023-05-17T01:51:34.167Z,98824.28
2023-05-17T01:54:12.549Z,98823.72
2023-05-17T01:56:49.176Z,98820.69
2023-05-17T01:59:25.467Z,98818.13
2023-05-17T02:02:07.372Z,98826.47
2023-05-17T02:04:41.487Z,98823.28
2023-05-17T02:07:13.496Z,98822.31
2023-05-17T02:09:46.476Z,98825.66
2023-05-17T02:12:18.545Z,98822.56
2023-05-17T02:14:51.130Z,98821.16
2023-05-17T02:17:23.148Z,98821.97
2023-05-17T02:19:55.586Z,98822.59
2023-05-17T02:22:27.983Z,98818.44
2023-05-17T02:25:03.248Z,98816.38
2023-05-17T02:27:36.180Z,98818.06
2023-05-17T02:30:11.490Z,98818.16
2023-05-17T02:32:43.730Z,98818.91
2023-05-17T02:35:16.314Z,98824.59
2023-05-17T02:37:48.452Z,98823.94
2023-05-17T02:40:20.946Z,98828.47
2023-05-17T02:42:52.900Z,98829.56
2023-05-17T02:45:26.449Z,98834.69
2023-05-17T02:47:58.968Z,98841.69
2023-05-17T02:50:31.844Z,98837.03
2023-05-17T02:53:04.634Z,98835.41
2023-05-17T02:55:37.122Z,98829.84
2023-05-17T02:58:09.606Z,98827.16
2023-05-17T03:00:46.485Z,98827.41
2023-05-17T03:03:20.753Z,98829.34
2023-05-17T03:05:53.403Z,98829.22
2023-05-17T03:08:27.503Z,98835.88
2023-05-17T03:11:00.995Z,98833.81
2023-05-17T03:13:33.065Z,98822.06
2023-05-17T03:16:06.312Z,98831.13
2023-05-17T03:18:39.305Z,98829.97
2023-05-17T03:21:12.539Z,98840.38
2023-05-17T03:23:45.588Z,98838.66
2023-05-17T03:26:19.980Z,98844.75
2023-05-17T03:28:55.582Z,98843.34
2023-05-17T03:31:28.447Z,98835.84
2023-05-17T03:34:01.054Z,98843.69
2023-05-17T03:36:35.147Z,98842.28
2023-05-17T03:39:07.893Z,98838.84
2023-05-17T03:41:42.421Z,98831.41
2023-05-17T03:44:15.562Z,98835.31
2023-05-17T03:46:50.345Z,98841.28
2023-05-17T03:49:23.826Z,98855.69
2023-05-17T03:51:57.328Z,98847.91
2023-05-17T03:54:29.545Z,98848.94
2023-05-17T03:57:02.004Z,98849.00
2023-05-17T03:59:35.072Z,98857.16
2023-05-17T04:02:09.691Z,98861.13
2023-05-17T04:04:49.550Z,98857.31
2023-05-17T04:07:23.586Z,98867.94
2023-05-17T04:10:02.769Z,98867.66
2023-05-17T04:12:35.612Z,98870.00
2023-05-17T04:15:08.276Z,98877.41
2023-05-17T04:17:43.242Z,98874.47
2023-05-17T04:20:15.407Z,98872.75
2023-05-17T04:22:48.259Z,98869.56
2023-05-17T04:25:21.081Z,98872.94
2023-05-17T04:27:53.645Z,98869.44
2023-05-17T04:30:25.892Z,98874.84
2023-05-17T04:32:59.154Z,98871.50
2023-05-17T04:35:31.194Z,98882.59
2023-05-17T04:38:04.231Z,98877.00
2023-05-17T04:40:37.055Z,98882.84
2023-05-17T04:43:10.296Z,98873.56
2023-05-17T04:45:42.955Z,98873.31
2023-05-17T04:48:17.018Z,98878.72
2023-05-17T04:50:49.214Z,98881.25
2023-05-17T04:53:22.594Z,98879.16
2023-05-17T04:55:55.320Z,98879.50
2023-05-17T04:58:28.294Z,98884.31
2023-05-17T05:01:03.661Z,98877.34
2023-05-17T05:03:37.124Z,98885.66
2023-05-17T05:06:12.292Z,98889.75
2023-05-17T05:08:45.437Z,98891.09
2023-05-17T05:11:18.419Z,98896.34
2023-05-17T05:13:51.462Z,98889.75
2023-05-17T05:16:24.969Z,98898.78
2023-05-17T05:18:58.511Z,98907.22
2023-05-17T05:21:31.330Z,98896.88
2023-05-17T05:24:05.518Z,98910.72
2023-05-17T05:26:38.006Z,98896.88
2023-05-17T05:29:12.360Z,98914.81
2023-05-17T05:31:44.626Z,98912.72
2023-05-17T05:34:17.651Z,98921.38
2023-05-17T05:36:50.100Z,98912.19
2023-05-17T05:39:22.995Z,98916.31
2023-05-17T05:41:55.862Z,98920.03
2023-05-17T05:44:28.790Z,98913.81
2023-05-17T05:47:02.122Z,98918.50
2023-05-17T05:49:35.933Z,98917.69
2023-05-17T05:52:08.894Z,98918.34
2023-05-17T05:54:42.735Z,98921.25
2023-05-17T05:57:15.148Z,98919.03
2023-05-17T05:59:48.252Z,98920.22
2023-05-17T06:02:21.272Z,98925.13
2023-05-17T06:04:55.652Z,98918.50
2023-05-17T06:07:28.662Z,98929.28
2023-05-17T06:10:01.156Z,98921.41
2023-05-17T06:12:33.714Z,98934.28
2023-05-17T06:15:09.860Z,98936.06
2023-05-17T06:17:42.079Z,98936.44
2023-05-17T06:25:11.403Z,98927.69
2023-05-17T06:27:44.287Z,98931.34
2023-05-17T06:30:16.228Z,98928.53
2023-05-17T06:32:48.695Z,98928.69
2023-05-17T06:35:20.697Z,98927.44
2023-05-17T06:37:53.181Z,98929.28
2023-05-17T06:40:25.107Z,98933.69
2023-05-17T06:42:57.907Z,98928.75
2023-05-17T06:45:30.283Z,98925.88
2023-05-17T06:48:02.833Z,98918.13
2023-05-17T06:50:34.857Z,98929.03
2023-05-17T06:53:07.736Z,98923.88
2023-05-17T06:55:40.309Z,98926.31
2023-05-17T06:58:12.730Z,98925.75
2023-05-17T07:00:44.787Z,98925.41
2023-05-17T07:03:17.769Z,98925.22
2023-05-17T07:05:50.552Z,98940.72
2023-05-17T07:08:23.009Z,98936.91
2023-05-17T07:10:55.044Z,98935.72
2023-05-17T07:13:27.860Z,98929.38
2023-05-17T07:16:00.664Z,98925.16
2023-05-17T07:18:33.288Z,98920.91
2023-05-17T07:21:05.627Z,98930.19
2023-05-17T07:23:38.155Z,98936.53
2023-05-17T07:26:10.490Z,98947.25
2023-05-17T07:28:42.850Z,98937.44
2023-05-17T07:31:14.831Z,98933.31
2023-05-17T07:33:47.730Z,98931.88
2023-05-17T07:36:19.774Z,98934.66
2023-05-17T07:38:55.672Z,98938.59
2023-05-17T07:41:28.571Z,98941.53
2023-05-17T07:44:01.016Z,98937.03
2023-05-17T07:46:33.465Z,98936.63
2023-05-17T07:49:06.098Z,98927.69
2023-05-17T07:51:38.831Z,98931.88
2023-05-17T07:54:23.786Z,98927.91
2023-05-17T07:56:56.333Z,98934.09
2023-05-17T07:59:28.810Z,98944.69
2023-05-17T08:02:03.413Z,98936.91
2023-05-17T08:04:36.753Z,98948.59
2023-05-17T08:07:09.194Z,98942.06
2023-05-17T08:09:44.451Z,98944.72
2023-05-17T08:12:16.435Z,98953.78
2023-05-17T08:14:49.294Z,98943.19
2023-05-17T08:17:23.836Z,98936.44
2023-05-17T08:22:52.929Z,98947.28
2023-05-17T08:25:26.349Z,98947.84
2023-05-17T08:27:58.923Z,98947.03
2023-05-17T08:30:31.770Z,98947.91
2023-05-17T08:33:03.929Z,98949.34
2023-05-17T08:35:39.322Z,98946.06
2023-05-17T08:38:11.440Z,98946.69
2023-05-17T08:40:44.138Z,98956.56
2023-05-17T08:43:16.702Z,98946.53
2023-05-17T08:45:50.787Z,98956.03
2023-05-17T08:48:23.919Z,98953.31
2023-05-17T08:51:03.847Z,98958.13
2023-05-17T08:53:36.595Z,98961.19
2023-05-17T08:56:11.561Z,98953.88
2023-05-17T08:58:56.414Z,98933.34
2023-05-17T09:01:33.089Z,98945.09
2023-05-17T09:04:09.774Z,98949.31
2023-05-17T09:06:44.885Z,98944.09
2023-05-17T09:09:18.753Z,98937.56
2023-05-17T09:11:51.691Z,98953.03
2023-05-17T09:14:23.694Z,98934.81
2023-05-17T09:16:59.314Z,98944.97
2023-05-17T09:19:31.717Z,98936.66
2023-05-17T09:22:07.507Z,98953.75
2023-05-17T09:24:41.506Z,98953.19
2023-05-17T09:27:18.904Z,98956.28
2023-05-17T09:32:25.355Z,98955.66
2023-05-17T09:34:59.859Z,98966.00
2023-05-17T09:37:32.799Z,98955.56
2023-05-17T09:40:09.479Z,98958.91
2023-05-17T09:42:42.381Z,98956.34
2023-05-17T09:45:26.642Z,98963.31
2023-05-17T09:48:16.361Z,98960.66
2023-05-17T09:50:52.356Z,98941.69
2023-05-17T09:53:29.347Z,98938.75
2023-05-17T09:56:03.070Z,98937.34
2023-05-17T09:58:38.311Z,98948.44
2023-05-17T10:01:11.470Z,98939.25
2023-05-17T10:03:44.282Z,98939.16
2023-05-17T10:06:38.228Z,98947.59
2023-05-17T10:09:16.330Z,98959.03
2023-05-17T10:11:48.639Z,98940.03
2023-05-17T10:14:34.223Z,98936.88
2023-05-17T10:17:09.078Z,98941.50
2023-05-17T10:22:38.723Z,98936.94
2023-05-17T10:25:11.498Z,98947.84
2023-05-17T10:27:45.088Z,98940.28
2023-05-17T10:30:20.951Z,98935.72
2023-05-17T10:32:57.139Z,98935.72
2023-05-17T10:35:32.938Z,98935.03
2023-05-17T10:38:05.289Z,98933.06
2023-05-17T10:40:41.076Z,98933.09
2023-05-17T10:43:14.716Z,98936.28
2023-05-17T10:45:49.441Z,98928.09
2023-05-17T10:48:21.603Z,98926.88
2023-05-17T10:53:33.235Z,98928.81
2023-05-17T10:56:06.203Z,98932.44
2023-05-17T10:58:39.458Z,98924.28
2023-05-17T11:01:53.253Z,98926.94
2023-05-17T11:04:36.695Z,98921.09
2023-05-17T11:07:27.585Z,98918.06
2023-05-17T11:10:11.071Z,98908.41
2023-05-17T11:12:54.497Z,98900.84
2023-05-17T11:15:27.738Z,98897.56
2023-05-17T11:18:01.337Z,98897.44
2023-05-17T11:20:36.172Z,98901.00
2023-05-17T11:23:18.787Z,98912.38
2023-05-17T11:25:54.224Z,98907.91
2023-05-17T11:28:47.729Z,98907.84
2023-05-17T11:31:34.661Z,98901.75
2023-05-17T11:34:07.170Z,98902.03
2023-05-17T11:36:55.570Z,98902.16
2023-05-17T11:39:28.648Z,98904.88
2023-05-17T11:42:00.613Z,98903.53
2023-05-17T11:44:35.319Z,98901.75
2023-05-17T11:47:27.129Z,98911.47
2023-05-17T11:50:06.996Z,98910.44
2023-05-17T11:52:41.360Z,98903.31
2023-05-17T11:55:16.425Z,98905.06
2023-05-17T11:57:49.242Z,98899.00
2023-05-17T12:00:28.835Z,98901.22
2023-05-17T12:03:26.508Z,98908.00
2023-05-17T12:06:15.931Z,98897.63
2023-05-17T12:08:49.464Z,98896.38
2023-05-17T12:11:23.109Z,98890.31
2023-05-17T12:13:56.928Z,98887.91
2023-05-17T12:16:30.506Z,98882.88
2023-05-17T12:22:14.582Z,98881.56
2023-05-17T12:25:26.154Z,98885.59
2023-05-17T12:28:22.711Z,98883.03
2023-05-17T12:30:58.873Z,98880.94
2023-05-17T12:33:35.343Z,98884.25
2023-05-17T12:36:10.718Z,98876.22
2023-05-17T12:38:45.752Z,98883.19
2023-05-17T12:41:20.531Z,98870.19
2023-05-17T12:44:03.025Z,98874.75
2023-05-17T12:46:54.857Z,98877.09
2023-05-17T12:49:27.839Z,98863.69
2023-05-17T12:52:06.172Z,98868.47
2023-05-17T12:54:40.333Z,98865.81
2023-05-17T12:57:16.220Z,98868.69
2023-05-17T12:59:49.898Z,98877.44
2023-05-17T13:02:24.248Z,98876.13
2023-05-17T13:04:56.593Z,98867.22
2023-05-17T13:07:50.881Z,98870.88
2023-05-17T13:10:27.260Z,98873.81
2023-05-17T13:13:00.624Z,98872.91
2023-05-17T13:15:37.818Z,98856.41
2023-05-17T13:18:18.262Z,98858.91
2023-05-17T13:20:52.055Z,98862.94
2023-05-17T13:23:24.656Z,98862.56
2023-05-17T13:25:56.815Z,98853.97
2023-05-17T13:28:29.851Z,98866.97
2023-05-17T13:31:01.816Z,98875.16
2023-05-17T13:33:34.987Z,98875.84
2023-05-17T13:36:08.808Z,98872.16
2023-05-17T13:38:42.030Z,98876.13
2023-05-17T13:41:14.344Z,98873.47
2023-05-17T13:43:48.659Z,98863.75
2023-05-17T13:46:21.029Z,98848.91
2023-05-17T13:48:53.418Z,98851.72
2023-05-17T13:51:28.439Z,98857.47
2023-05-17T13:54:01.795Z,98849.22
2023-05-17T13:56:36.054Z,98850.00
2023-05-17T13:59:07.974Z,98851.84
2023-05-17T14:01:42.576Z,98846.09
2023-05-17T14:04:15.414Z,98845.13
2023-05-17T14:06:49.214Z,98862.56
2023-05-17T14:09:24.295Z,98863.84
2023-05-17T14:11:57.668Z,98861.66
2023-05-17T14:14:31.834Z,98857.41
2023-05-17T14:17:04.427Z,98847.56
2023-05-17T14:19:38.468Z,98842.66
2023-05-17T14:22:11.168Z,98842.91
2023-05-17T14:24:43.928Z,98838.06
2023-05-17T14:27:16.327Z,98830.13
2023-05-17T14:29:49.609Z,98831.31
2023-05-17T14:32:22.324Z,98846.53
2023-05-17T14:34:54.743Z,98840.25
2023-05-17T14:37:27.143Z,98831.91
2023-05-17T14:40:22.554Z,98832.78
2023-05-17T14:42:56.399Z,98832.63
2023-05-17T14:45:29.830Z,98816.59
2023-05-17T14:48:02.344Z,98826.88
2023-05-17T14:50:35.504Z,98833.53
2023-05-17T14:53:08.089Z,98815.66
2023-05-17T14:55:42.262Z,98831.25
2023-05-17T14:58:15.817Z,98829.25
2023-05-17T15:00:54.111Z,98830.78
2023-05-17T15:03:28.736Z,98835.03
2023-05-17T15:06:03.558Z,98833.25
2023-05-17T15:08:40.689Z,98825.91
2023-05-17T15:11:14.810Z,98825.41
2023-05-17T15:13:47.238Z,98815.59
2023-05-17T15:16:19.853Z,98811.44
2023-05-17T15:18:54.830Z,98810.03
2023-05-17T15:21:28.103Z,98812.25
2023-05-17T15:24:02.673Z,98816.03
2023-05-17T15:26:35.450Z,98817.03
2023-05-17T15:29:07.445Z,98805.66
2023-05-17T15:31:40.701Z,98818.97
2023-05-17T15:34:12.884Z,98818.88
2023-05-17T15:36:46.301Z,98813.75
2023-05-17T15:39:19.035Z,98813.16
2023-05-17T15:41:52.299Z,98816.94
2023-05-17T15:44:25.107Z,98818.00
2023-05-17T15:46:57.501Z,98823.66
2023-05-17T15:49:32.183Z,98824.63
2023-05-17T15:52:04.597Z,98818.50
2023-05-17T15:54:37.401Z,98821.56
2023-05-17T15:57:09.588Z,98819.94
2023-05-17T15:59:48.316Z,98817.38
2023-05-17T16:02:20.946Z,98822.28
2023-05-17T16:04:53.688Z,98819.25
2023-05-17T16:07:28.909Z,98817.81
2023-05-17T16:10:01.267Z,98811.09
2023-05-17T16:12:34.088Z,98819.91
2023-05-17T16:15:08.260Z,98806.25
2023-05-17T16:17:40.847Z,98811.38
2023-05-17T16:20:17.089Z,98805.50
2023-05-17T16:22:51.076Z,98804.75
2023-05-17T16:25:25.550Z,98809.25
2023-05-17T16:27:57.900Z,98813.66
2023-05-17T16:30:33.094Z,98821.88
2023-05-17T16:33:08.254Z,98821.78
2023-05-17T16:35:42.420Z,98821.25
2023-05-17T16:38:14.384Z,98826.59
2023-05-17T16:40:47.863Z,98816.09
2023-05-17T16:43:20.645Z,98820.63
2023-05-17T16:45:53.036Z,98819.75
2023-05-17T16:48:26.393Z,98826.56
2023-05-17T16:50:59.477Z,98820.50
2023-05-17T16:53:54.096Z,98817.34
2023-05-17T16:56:27.150Z,98815.19
2023-05-17T16:59:03.353Z,98815.94
2023-05-17T17:01:35.729Z,98815.31
2023-05-17T17:04:08.936Z,98811.72
2023-05-17T17:06:40.847Z,98823.09
2023-05-17T17:09:14.613Z,98824.59
2023-05-17T17:11:46.846Z,98839.38
2023-05-17T17:14:19.951Z,98834.13
2023-05-17T17:16:51.928Z,98842.84
2023-05-17T17:19:27.829Z,98841.06
2023-05-17T17:22:00.144Z,98844.63
2023-05-17T17:24:34.010Z,98842.13
2023-05-17T17:27:07.035Z,98844.84
2023-05-17T17:29:39.069Z,98841.00
2023-05-17T17:32:11.982Z,98842.25
2023-05-17T17:34:44.506Z,98845.66
2023-05-17T17:37:17.559Z,98839.69
2023-05-17T17:39:50.752Z,98843.59
2023-05-17T17:42:23.229Z,98844.28
2023-05-17T17:44:55.663Z,98839.69
2023-05-17T17:47:28.523Z,98855.06
2023-05-17T17:50:01.064Z,98859.78
2023-05-17T17:52:34.537Z,98863.97
2023-05-17T17:55:07.715Z,98864.00
2023-05-17T17:57:42.368Z,98870.00
2023-05-17T18:00:18.662Z,98868.19
2023-05-17T18:02:50.979Z,98869.53
2023-05-17T18:05:25.746Z,98876.84
2023-05-17T18:07:58.217Z,98874.16
2023-05-17T18:10:31.949Z,98877.41
2023-05-17T18:13:05.301Z,98878.09
2023-05-17T18:15:37.201Z,98880.88
2023-05-17T18:18:10.016Z,98880.16
2023-05-17T18:20:42.415Z,98885.22
2023-05-17T18:23:15.595Z,98879.88
2023-05-17T18:25:50.501Z,98879.75
2023-05-17T18:28:33.844Z,98879.03
2023-05-17T18:31:14.943Z,98890.28
2023-05-17T18:33:47.328Z,98904.00
2023-05-17T18:36:19.255Z,98901.16
2023-05-17T18:38:52.906Z,98908.75
2023-05-17T18:41:26.090Z,98902.19
2023-05-17T18:44:02.182Z,98908.91
2023-05-17T18:46:34.106Z,98911.59
2023-05-17T18:49:07.194Z,98910.31
2023-05-17T18:51:39.278Z,98921.56
2023-05-17T18:54:12.655Z,98922.88
2023-05-17T18:56:44.958Z,98920.22
2023-05-17T18:59:18.249Z,98920.88
2023-05-17T19:01:50.604Z,98930.09
2023-05-17T19:04:23.401Z,98924.81
2023-05-17T19:06:56.208Z,98922.13
2023-05-17T19:09:28.993Z,98936.66
2023-05-17T19:12:05.675Z,98935.31
2023-05-17T19:14:39.039Z,98932.66
2023-05-17T19:17:11.051Z,98942.50
2023-05-17T19:19:44.404Z,98951.69
2023-05-17T19:22:16.746Z,98949.66
2023-05-17T19:24:50.485Z,98950.38
2023-05-17T19:27:23.676Z,98954.94
2023-05-17T19:29:56.106Z,98965.41
2023-05-17T19:32:30.637Z,98965.31
2023-05-17T19:35:03.216Z,98967.25
2023-05-17T19:37:36.201Z,98971.25
2023-05-17T19:40:09.007Z,98982.50
2023-05-17T19:42:48.891Z,98971.84
2023-05-17T19:45:21.293Z,98984.91
2023-05-17T19:47:54.809Z,98982.28
2023-05-17T19:50:27.435Z,98980.25
2023-05-17T19:53:01.294Z,98984.81
2023-05-17T19:55:34.383Z,98979.38
2023-05-17T19:58:07.144Z,98985.09
2023-05-17T20:00:40.032Z,98987.69
2023-05-17T20:03:12.499Z,98988.25
2023-05-17T20:05:45.413Z,98987.41
2023-05-17T20:08:17.553Z,98987.28
2023-05-17T20:10:50.674Z,98987.78
2023-05-17T20:13:26.112Z,98983.81
2023-05-17T20:15:58.884Z,98985.72
2023-05-17T20:18:32.083Z,98987.69
2023-05-17T20:21:04.530Z,98984.28
2023-05-17T20:23:36.884Z,98985.59
2023-05-17T20:26:16.394Z,98986.94
2023-05-17T20:28:48.702Z,98982.88
2023-05-17T20:31:21.874Z,98988.75
2023-05-17T20:33:54.824Z,98985.28
2023-05-17T20:36:30.407Z,98982.09
2023-05-17T20:39:02.781Z,98982.06
2023-05-17T20:41:35.519Z,98982.03
2023-05-17T20:44:07.423Z,98983.41
2023-05-17T20:46:40.332Z,98966.28
2023-05-17T20:49:12.645Z,98970.44
2023-05-17T20:51:46.565Z,98973.53
2023-05-17T20:54:18.884Z,98967.00
2023-05-17T20:56:50.990Z,98976.13
2023-05-17T20:59:24.215Z,98965.41
2023-05-17T21:01:56.517Z,98965.94
2023-05-17T21:04:29.364Z,98959.34
2023-05-17T21:07:01.750Z,98965.25
2023-05-17T21:09:35.179Z,98965.94
2023-05-17T21:12:07.685Z,98970.03
2023-05-17T21:14:40.445Z,98967.88
2023-05-17T21:17:12.778Z,98974.47
2023-05-17T21:19:46.278Z,98965.47
2023-05-17T21:22:19.471Z,98961.44
2023-05-17T21:24:52.932Z,98975.63
2023-05-17T21:27:24.970Z,98964.56
2023-05-17T21:29:58.157Z,98955.31
2023-05-17T21:32:30.503Z,98956.56
2023-05-17T21:35:03.802Z,98965.53
2023-05-17T21:37:44.879Z,98962.25
2023-05-17T21:40:17.212Z,98952.63
2023-05-17T21:42:52.837Z,98941.28
2023-05-17T21:45:25.465Z,98953.88
2023-05-17T21:47:58.293Z,98949.34
2023-05-17T21:50:31.064Z,98958.50
2023-05-17T21:53:04.018Z,98950.00
2023-05-17T21:55:51.264Z,98944.06
2023-05-17T21:58:28.270Z,98943.38
2023-05-17T22:01:02.306Z,98956.63
2023-05-17T22:03:34.896Z,98944.03
2023-05-17T22:06:08.122Z,98940.03
2023-05-17T22:08:42.283Z,98938.06
2023-05-17T22:11:15.379Z,98938.75
2023-05-17T22:13:47.604Z,98946.03
2023-05-17T22:16:24.228Z,98942.09
2023-05-17T22:19:00.811Z,98944.03
2023-05-17T22:21:33.270Z,98943.38
2023-05-17T22:24:05.680Z,98935.44
2023-05-17T22:26:39.469Z,98935.84
2023-05-17T22:29:13.092Z,98943.19
2023-05-17T22:31:47.707Z,98942.06
2023-05-17T22:34:19.633Z,98938.97
2023-05-17T22:36:52.350Z,98932.66
2023-05-17T22:39:24.262Z,98925.84
2023-05-17T22:41:56.964Z,98932.09
2023-05-17T22:44:28.914Z,98933.34
2023-05-17T22:47:02.457Z,98931.41
2023-05-17T22:49:35.702Z,98932.81
2023-05-17T22:52:08.981Z,98917.91
2023-05-17T22:54:41.046Z,98926.66
2023-05-17T22:57:13.768Z,98914.75
2023-05-17T22:59:45.661Z,98920.88
2023-05-17T23:02:18.813Z,98918.88
2023-05-17T23:04:50.717Z,98914.28
2023-05-17T23:07:23.729Z,98906.97
2023-05-17T23:09:56.032Z,98909.47
2023-05-17T23:12:28.203Z,98918.78
2023-05-17T23:15:01.090Z,98910.94
2023-05-17T23:17:34.395Z,98918.22
2023-05-17T23:20:09.996Z,98911.66
2023-05-17T23:22:43.591Z,98928.03
2023-05-17T23:25:15.941Z,98909.88
2023-05-17T23:27:49.082Z,98917.34
2023-05-17T23:30:23.130Z,98925.09
2023-05-17T23:32:55.557Z,98922.72
2023-05-17T23:35:28.528Z,98923.28
2023-05-17T23:38:00.721Z,98908.94
2023-05-17T23:40:34.766Z,98909.75
2023-05-17T23:43:08.639Z,98906.16
2023-05-17T23:45:41.429Z,98910.00
2023-05-17T23:48:16.513Z,98910.91
2023-05-17T23:50:49.294Z,98910.00
2023-05-17T23:53:23.421Z,98907.44
2023-05-17T23:55:56.834Z,98900.22
2023-05-17T23:58:28.770Z,98897.50
